Last 7 Days

Middletown-South

Hourly Data | America/Los_Angeles
as of 5/6/26 3:11 PM PDT
Date & Time Temp (°F) RH (%) Dew Pt (°F) Wet Bulb (°F) Wind Dir (°) Wind Spd (mph) Wind Gust (mph) Leaf Wet (mins) BatVolt (V) Latest Rain (In) Max Rain Intensity (In/Hr) Precip 24Hr (In) Storm Total (In) Daily Rain (In) Daily Min Temp (°F) Daily Max Temp (°F) Daily Max Wind (mph) Daily Leaf Wet (Hrs)
5/6/26 - 1500 73.4 55 56.0 62.7 NE | 55 3.2 8.7 0.0 13.1 0.00 - - - 0.00 54.8 75.5 8.7 0.0
5/6/26 - 1400 70.5 56 54.3 60.9 NE | 45 3.7 8.0 0.0 13.2 0.00 - - - 0.00 54.8 72.0 8.0 0.0
5/6/26 - 1300 68.0 59 53.0 59.4 E | 86 2.6 7.8 0.0 13.2 0.00 - - - 0.00 54.8 69.6 7.8 0.0
5/6/26 - 1200 65.7 61 52.0 58.1 E | 89 2.1 6.6 0.0 13.2 0.00 - - - 0.00 54.8 66.8 6.7 0.0
5/6/26 - 1100 64.5 63 51.7 57.5 ENE | 73 2.4 6.7 0.0 13.2 0.00 - - - 0.00 54.8 65.5 6.7 0.0
5/6/26 - 1000 63.3 68 52.7 57.8 NNE | 29 1.9 6.2 0.0 13.3 0.00 - - - 0.00 54.8 64.8 6.2 0.0
5/6/26 - 0900 59.9 78 53.2 56.9 ENE | 71 1.3 4.5 0.0 13.3 0.00 - - - 0.00 54.8 62.0 4.5 0.0
5/6/26 - 0800 56.8 86 52.8 55.5 SSE | 148 0.3 2.7 0.0 13.4 0.00 - - - 0.00 54.8 58.6 2.7 0.0
5/6/26 - 0700 55.4 90 52.6 54.8 SSE | 167 0.1 1.3 0.0 12.6 0.00 - - - 0.00 54.8 55.9 2.5 0.0
5/6/26 - 0600 55.3 90 52.5 54.7 SE | 138 0.0 1.4 0.0 12.5 0.00 - - - 0.00 54.8 55.8 2.5 0.0
5/6/26 - 0500 55.2 90 52.4 54.6 SSW | 206 0.2 2.0 0.0 12.6 0.00 - - - 0.00 54.8 55.8 2.5 0.0
5/6/26 - 0400 55.1 90 52.3 54.5 W | 261 0.4 1.5 0.0 12.6 0.00 - - - 0.00 54.8 55.8 2.5 0.0
5/6/26 - 0300 55.3 89 52.0 54.4 WSW | 238 0.4 1.8 0.0 12.6 0.00 - - - 0.00 54.8 55.8 2.5 0.0
5/6/26 - 0200 55.5 85 51.2 54.0 S | 189 0.6 2.5 0.0 12.6 0.00 - - - 0.00 55.2 55.8 2.5 0.0
5/6/26 - 0100 55.5 84 50.6 53.6 SSE | 153 0.7 3.6 0.0 12.6 0.00 - - - 0.00 50.3 65.1 19.0 0.9
5/6/26 - 0000 55.7 83 50.7 53.7 SE | 142 0.8 3.1 0.0 12.6 0.00 - - - 0.00 50.3 65.1 19.0 0.9
5/5/26 - 2300 55.6 82 50.3 53.5 SE | 138 1.3 4.9 0.0 12.7 0.00 - 0.02 0.33 0.00 50.3 65.1 19.0 0.9
5/5/26 - 2200 56.4 80 50.4 53.9 ESE | 119 1.2 5.2 0.0 12.7 0.00 - 0.04 0.33 0.00 50.3 65.1 19.0 0.9
5/5/26 - 2100 57.2 78 50.5 54.2 SW | 218 2.0 9.8 0.0 12.8 0.00 - 0.04 0.33 0.00 50.3 65.1 19.0 0.9
5/5/26 - 2000 57.8 77 50.7 54.6 SW | 220 4.5 14.1 0.0 13.0 0.00 - 0.04 0.33 0.00 50.3 65.1 19.0 0.9
5/5/26 - 1900 59.3 75 51.4 55.6 SW | 231 6.0 15.7 0.0 13.3 0.00 - 0.04 0.33 0.00 50.3 65.1 19.0 0.9
5/5/26 - 1800 61.0 72 51.9 56.5 SW | 235 7.3 19.0 0.0 13.3 0.00 - 0.09 0.33 0.00 50.3 65.1 19.0 0.9
5/5/26 - 1700 62.2 70 52.2 57.1 SW | 233 6.6 16.0 0.0 13.3 0.00 - 0.09 0.33 0.00 50.3 65.1 17.6 0.9
5/5/26 - 1600 63.9 66 52.4 57.8 WSW | 246 6.9 17.6 0.0 13.2 0.00 - 0.10 0.33 0.00 50.3 65.1 17.6 0.9
5/5/26 - 1500 62.7 68 51.8 57.0 WSW | 247 5.7 13.5 0.0 13.3 0.00 - 0.12 0.33 0.00 50.3 64.4 17.6 0.9
5/5/26 - 1400 60.5 72 51.3 55.9 WSW | 249 5.0 11.3 0.0 13.3 0.00 - 0.24 0.33 0.00 50.3 62.2 17.6 0.9
5/5/26 - 1300 61.3 69 51.0 56.0 ENE | 74 3.5 10.5 0.0 13.3 0.00 - 0.33 0.33 0.00 50.3 62.2 17.6 0.9
5/5/26 - 1200 59.8 71 50.3 55.1 ENE | 63 3.4 8.9 0.0 13.3 0.00 - 0.33 0.33 0.00 50.3 61.1 17.6 0.9
5/5/26 - 1100 58.2 74 49.8 54.2 ENE | 74 2.9 8.6 0.0 13.4 0.00 - 0.33 0.33 0.00 50.3 59.1 17.6 0.9
5/5/26 - 1000 56.5 75 48.8 52.9 E | 86 1.3 4.7 0.0 13.4 0.00 - 0.33 0.33 0.00 50.3 57.8 17.6 0.9
5/5/26 - 0900 54.2 85 49.6 52.5 SW | 226 0.5 2.6 0.0 13.4 0.00 - 0.33 0.33 0.00 50.3 55.5 17.6 0.9
5/5/26 - 0800 52.2 89 49.0 51.2 ENE | 60 0.6 3.1 0.0 13.1 0.00 - 0.33 0.33 0.00 50.3 53.4 17.6 0.9
5/5/26 - 0700 50.8 93 48.8 50.4 SSE | 166 1.3 4.6 0.0 12.6 0.00 - 0.33 0.33 0.00 50.3 51.8 17.6 0.9
5/5/26 - 0600 50.6 92 48.5 50.2 SSE | 158 0.6 3.7 0.0 12.5 0.00 - 0.33 0.33 0.00 50.3 51.8 17.6 0.9
5/5/26 - 0500 50.8 93 48.9 50.5 ESE | 120 0.6 3.5 0.0 12.5 0.00 - 0.33 0.33 0.00 50.4 51.8 17.6 0.9
5/5/26 - 0400 50.9 92 48.6 50.4 SE | 136 1.0 5.6 0.0 12.6 0.00 - 0.33 0.33 0.00 50.6 51.8 17.6 0.9
5/5/26 - 0300 51.3 89 48.1 50.3 SSW | 200 4.6 17.6 0.0 12.6 0.00 - 0.33 0.33 0.00 50.6 51.8 17.6 0.9
5/5/26 - 0200 51.2 93 49.1 50.8 SSW | 200 1.3 10.6 53.4 12.6 0.00 - 0.33 0.33 0.00 50.7 51.8 10.6 0.9
5/5/26 - 0100 51.6 87 48.0 50.4 SSW | 194 2.2 7.7 22.1 12.6 0.00 - 0.33 0.33 0.33 47.2 63.9 16.9 9.8
5/5/26 - 0000 51.2 92 49.0 50.8 SW | 231 3.7 12.6 60.0 12.6 0.02 0.06 0.33 0.33 0.33 47.2 63.9 16.9 9.4
5/4/26 - 2300 51.4 92 49.3 51.0 SSW | 209 5.1 12.2 51.2 12.6 0.02 0.01 0.31 0.31 0.31 47.2 63.9 16.9 8.4
5/4/26 - 2200 52.7 88 49.2 51.6 SSW | 204 4.8 13.2 0.0 12.7 0.00 - 0.29 0.29 0.29 47.2 63.9 16.9 7.6
5/4/26 - 2100 52.0 91 49.3 51.3 SSW | 198 4.0 15.0 48.2 12.8 0.00 - 0.29 0.29 0.29 47.2 63.9 16.9 7.6
5/4/26 - 2000 52.0 88 48.7 51.0 SW | 235 4.1 14.5 60.0 12.9 0.00 - 0.29 0.29 0.29 47.2 63.9 16.9 6.8
5/4/26 - 1900 51.9 86 47.8 50.4 SSW | 203 2.7 11.5 60.0 13.0 0.05 0.08 0.29 0.29 0.29 47.2 63.9 16.9 5.8
5/4/26 - 1800 52.9 82 47.5 50.7 SW | 214 5.3 16.8 60.0 13.2 0.00 - 0.24 0.24 0.24 47.2 63.9 16.9 4.8
5/4/26 - 1700 53.4 87 49.5 52.0 SW | 218 5.1 16.9 60.0 13.5 0.01 0.01 0.24 0.24 0.24 47.2 63.9 16.9 3.8
5/4/26 - 1600 54.0 89 51.0 53.2 SW | 226 2.5 12.6 60.0 13.5 0.02 0.08 0.23 0.23 0.23 47.2 63.9 12.6 2.8
5/4/26 - 1500 54.1 87 50.2 52.8 WSW | 244 4.7 12.3 60.0 13.4 0.12 0.27 0.21 0.21 0.21 47.2 63.9 12.3 1.8
5/4/26 - 1400 57.0 75 48.9 53.2 WSW | 243 4.4 11.7 45.4 13.2 0.09 0.33 0.09 - 0.09 47.2 63.9 11.7 0.8
5/4/26 - 1300 60.6 63 47.8 54.0 WSW | 242 4.2 10.6 0.0 13.3 0.00 - - - 0.00 47.2 63.9 10.6 0.0
5/4/26 - 1200 62.8 56 47.0 54.3 WSW | 238 3.5 10.4 0.0 13.2 0.00 - - - 0.00 47.2 63.9 10.4 0.0
5/4/26 - 1100 62.0 56 46.1 53.5 ESE | 103 2.6 6.6 0.0 13.3 0.00 - - - 0.00 47.2 63.4 7.5 0.0
5/4/26 - 1000 59.5 61 46.1 52.6 SSE | 148 2.4 6.9 0.0 13.3 0.00 - - - 0.00 47.2 61.2 7.5 0.0
5/4/26 - 0900 57.2 65 45.6 51.4 SW | 216 1.8 7.5 0.0 13.4 0.00 - - - 0.00 47.2 58.6 7.5 0.0
5/4/26 - 0800 53.6 78 46.7 50.5 SE | 126 1.1 5.5 0.0 13.4 0.00 - - - 0.00 47.2 56.8 5.5 0.0
5/4/26 - 0700 48.3 91 45.8 47.6 SSW | 192 0.9 3.4 0.0 12.6 0.00 - - - 0.00 47.2 51.5 4.6 0.0
5/4/26 - 0600 47.6 93 45.6 47.2 S | 189 0.9 4.1 0.0 12.5 0.00 - - - 0.00 47.2 51.5 4.6 0.0
5/4/26 - 0500 47.7 93 45.8 47.3 SSW | 196 1.1 2.4 0.0 12.6 0.00 - - - 0.00 47.2 51.5 4.6 0.0
5/4/26 - 0400 49.3 89 46.2 48.3 SSW | 200 0.5 2.6 0.0 12.6 0.00 - - - 0.00 48.4 51.5 4.6 0.0
5/4/26 - 0300 50.8 85 46.4 49.1 SSE | 157 1.1 3.7 0.0 12.6 0.00 - - - 0.00 50.1 51.5 4.6 0.0
5/4/26 - 0200 51.0 84 46.5 49.2 SSE | 168 0.9 4.6 0.0 12.6 0.00 - - - 0.00 50.7 51.5 4.6 0.0
5/4/26 - 0100 51.8 82 46.3 49.5 SSE | 156 1.9 7.7 0.0 12.6 0.00 - - - 0.00 46.3 65.2 20.6 5.3
5/4/26 - 0000 53.0 77 46.0 49.8 S | 184 2.2 9.9 0.0 12.6 0.00 - - - 0.00 46.3 65.2 20.6 5.3
5/3/26 - 2300 54.1 74 45.8 50.2 SSW | 199 2.6 12.9 0.0 12.6 0.00 - - - 0.00 46.3 65.2 20.6 5.3
5/3/26 - 2200 54.1 73 45.7 50.2 SW | 221 4.5 14.0 0.0 12.7 0.00 - - - 0.00 46.3 65.2 20.6 5.3
5/3/26 - 2100 54.5 71 45.2 50.0 SW | 228 4.8 15.2 0.0 12.8 0.00 - - - 0.00 46.3 65.2 20.6 5.3
5/3/26 - 2000 55.3 69 45.2 50.4 WSW | 248 6.2 16.3 0.0 12.9 0.00 - - - 0.00 46.3 65.2 20.6 5.3
5/3/26 - 1900 56.4 67 45.6 51.1 WSW | 257 6.7 18.7 0.0 13.1 0.00 - - - 0.00 46.3 65.2 20.6 5.3
5/3/26 - 1800 59.6 62 46.6 52.9 WSW | 243 6.9 20.6 0.0 13.2 0.00 - - - 0.00 46.3 65.2 20.6 5.3
5/3/26 - 1700 62.0 58 47.0 54.0 WSW | 238 6.2 15.3 0.0 13.2 0.00 - - - 0.00 46.3 65.2 17.9 5.3
5/3/26 - 1600 63.1 57 47.6 54.7 WSW | 246 7.7 17.9 0.0 13.2 0.00 - - - 0.00 46.3 65.2 17.9 5.3
5/3/26 - 1500 64.4 57 48.6 55.7 SW | 233 5.7 15.4 0.0 13.2 0.00 - - - 0.00 46.3 65.2 15.4 5.3
5/3/26 - 1400 62.6 60 48.7 55.1 WSW | 237 5.2 12.9 0.0 13.2 0.00 - - - 0.00 46.3 64.8 12.9 5.3
5/3/26 - 1300 62.3 61 48.9 55.1 NW | 305 3.9 12.0 0.0 13.2 0.00 - - - 0.00 46.3 63.0 12.0 5.3
5/3/26 - 1200 60.7 63 48.2 54.2 SE | 132 2.6 8.3 0.0 13.3 0.00 - - - 0.00 46.3 62.4 8.3 5.3
5/3/26 - 1100 57.3 70 47.6 52.6 SE | 146 2.3 7.8 0.0 13.4 0.00 - - - 0.00 46.3 59.1 7.8 5.3
5/3/26 - 1000 55.3 76 47.8 51.9 E | 101 2.0 6.0 0.0 13.4 0.00 - - - 0.00 46.3 56.2 6.0 5.3
5/3/26 - 0900 52.8 84 48.1 51.0 NNE | 15 0.7 4.4 0.0 13.5 0.00 - - - 0.00 46.3 54.4 4.4 5.3
5/3/26 - 0800 49.6 94 47.9 49.4 S | 190 0.8 3.4 53.6 13.5 0.00 - - - 0.00 46.3 51.4 3.4 5.3
5/3/26 - 0700 46.9 97 46.0 47.0 SW | 225 0.3 1.4 60.0 12.6 0.00 - - - 0.00 46.3 49.4 2.5 4.4
5/3/26 - 0600 46.8 96 45.7 46.8 SSW | 211 0.2 1.4 60.0 12.5 0.00 - - - 0.00 46.3 49.4 2.5 3.4
5/3/26 - 0500 47.1 96 46.0 47.1 SW | 218 0.3 1.3 60.0 12.6 0.00 - - - 0.00 46.8 49.4 2.5 2.4
5/3/26 - 0400 47.4 95 46.1 47.3 SW | 228 0.4 2.1 60.0 12.6 0.00 - - - 0.00 46.9 49.4 2.5 1.4
5/3/26 - 0300 47.9 94 46.3 47.7 SSW | 197 0.3 2.1 26.5 12.6 0.00 - - - 0.00 47.5 49.4 2.5 0.4
5/3/26 - 0200 48.8 92 46.5 48.2 SSW | 207 0.7 2.5 0.0 12.6 0.00 - - - 0.00 48.1 49.4 2.5 0.0
5/3/26 - 0100 49.2 92 46.9 48.6 S | 183 1.0 2.5 0.0 12.6 0.00 - - - 0.00 47.4 75.5 11.4 6.3
5/3/26 - 0000 50.1 89 47.1 49.2 SSW | 206 0.8 2.2 0.0 12.6 0.00 - - - 0.00 47.4 75.5 11.4 6.3
5/2/26 - 2300 51.3 86 47.3 49.8 SSW | 193 0.8 2.4 0.0 12.6 0.00 - - - 0.00 47.4 75.5 11.4 6.3
5/2/26 - 2200 52.3 84 47.8 50.6 SSW | 206 1.0 2.6 0.0 12.7 0.00 - - - 0.00 47.4 75.5 11.4 6.3
5/2/26 - 2100 55.2 79 48.8 52.4 S | 184 1.2 3.7 0.0 12.8 0.00 - - - 0.00 47.4 75.5 11.4 6.3
5/2/26 - 2000 59.0 70 49.4 54.3 SE | 142 2.1 6.0 0.0 12.9 0.00 - - - 0.00 47.4 75.5 11.4 6.3
5/2/26 - 1900 63.8 61 50.0 56.3 SSE | 147 2.0 7.7 0.0 13.2 0.00 - - - 0.00 47.4 75.5 11.4 6.3
5/2/26 - 1800 66.5 55 49.8 57.1 SW | 224 2.9 8.7 0.0 13.2 0.00 - - - 0.00 47.4 75.5 11.4 6.3
5/2/26 - 1700 69.3 49 49.1 57.6 WSW | 254 2.8 10.1 0.0 13.1 0.00 - - - 0.00 47.4 75.5 11.4 6.3
5/2/26 - 1600 69.1 53 51.3 58.7 W | 266 4.3 11.4 0.0 13.1 0.00 - - - 0.00 47.4 75.5 11.4 6.3
5/2/26 - 1500 72.8 44 49.8 58.9 E | 95 2.9 9.4 0.0 13.1 0.00 - - - 0.00 47.4 75.5 9.4 6.3
5/2/26 - 1400 73.7 36 45.4 56.8 ESE | 121 2.7 8.3 0.0 13.1 0.00 - - - 0.00 47.4 75.5 9.4 6.3
5/2/26 - 1300 70.8 47 49.5 58.2 ENE | 61 3.8 8.7 0.0 13.2 0.00 - - - 0.00 47.4 72.5 9.4 6.3
5/2/26 - 1200 68.1 53 50.4 57.9 NE | 44 4.4 9.4 0.0 13.2 0.00 - - - 0.00 47.4 69.7 9.4 6.3
5/2/26 - 1100 64.1 64 51.6 57.3 NNE | 26 3.0 7.3 0.0 13.2 0.00 - - - 0.00 47.4 66.3 7.3 6.3
5/2/26 - 1000 59.5 73 50.7 55.2 N | 4 2.1 6.2 0.0 13.3 0.00 - - - 0.00 47.4 62.1 6.2 6.3
5/2/26 - 0900 54.6 82 49.2 52.4 NNE | 25 0.9 4.2 0.0 13.4 0.00 - - - 0.00 47.4 58.0 4.2 6.3
5/2/26 - 0800 50.0 91 47.5 49.4 SSE | 153 0.3 2.5 54.6 13.2 0.00 - - - 0.00 47.4 52.4 2.8 6.3
5/2/26 - 0700 48.0 94 46.4 47.8 SSW | 203 0.7 2.8 60.0 12.5 0.00 - - - 0.00 47.4 51.9 2.8 5.4
5/2/26 - 0600 47.8 95 46.6 47.8 S | 176 0.7 2.7 60.0 12.5 0.00 - - - 0.00 47.4 51.9 2.7 4.4
5/2/26 - 0500 47.7 96 46.5 47.7 SSW | 207 0.4 1.6 60.0 12.5 0.00 - - - 0.00 47.4 51.9 2.3 3.4
5/2/26 - 0400 48.4 95 46.9 48.2 SSW | 204 0.8 1.6 60.0 12.5 0.00 - - - 0.00 47.8 51.9 2.3 2.4
5/2/26 - 0300 49.8 94 48.0 49.5 SSW | 201 0.8 2.0 60.0 12.6 0.00 - - - 0.00 48.8 51.9 2.3 1.4
5/2/26 - 0200 51.0 93 49.0 50.7 SSW | 199 1.1 2.3 25.3 12.6 0.00 - - - 0.00 50.2 51.9 2.3 0.4
5/2/26 - 0100 52.7 90 49.9 52.0 SSW | 201 0.9 2.5 0.0 12.6 0.00 - - - 0.00 46.0 82.5 17.4 7.2
5/2/26 - 0000 55.4 83 50.2 53.3 S | 178 1.0 4.1 0.0 12.6 0.00 - - - 0.00 46.0 82.5 17.4 7.2
5/1/26 - 2300 59.2 73 50.7 55.1 SE | 143 2.0 4.9 0.0 12.6 0.00 - - - 0.00 46.0 82.5 17.4 7.2
5/1/26 - 2200 63.7 65 51.7 57.3 SSE | 151 2.3 9.6 0.0 12.7 0.00 - - - 0.00 46.0 82.5 17.4 7.2
5/1/26 - 2100 67.2 59 52.4 58.8 S | 175 3.2 9.2 0.0 12.7 0.00 - - - 0.00 46.0 82.5 17.4 7.2
5/1/26 - 2000 70.8 49 50.8 58.9 SSW | 193 3.0 9.8 0.0 12.8 0.00 - - - 0.00 46.0 82.5 17.4 7.2
5/1/26 - 1900 74.7 40 48.6 58.7 SW | 230 6.0 15.7 0.0 13.0 0.00 - - - 0.00 46.0 82.5 17.4 7.2
5/1/26 - 1800 76.8 37 48.3 59.1 SW | 231 6.8 15.0 0.0 13.1 0.00 - - - 0.00 46.0 82.5 17.4 7.2
5/1/26 - 1700 78.0 30 43.8 57.2 SW | 230 6.8 17.4 0.0 13.1 0.00 - - - 0.00 46.0 82.5 17.4 7.2
5/1/26 - 1600 78.4 26 40.8 56.1 SW | 235 6.9 15.7 0.0 13.1 0.00 - - - 0.00 46.0 82.5 15.7 7.2
5/1/26 - 1500 79.9 27 43.2 57.5 WSW | 237 6.8 14.9 0.0 13.0 0.00 - - - 0.00 46.0 82.5 14.9 7.2
5/1/26 - 1400 81.7 28 45.1 58.7 W | 260 4.4 11.7 0.0 13.0 0.00 - - - 0.00 46.0 82.5 11.7 7.2
5/1/26 - 1300 80.1 34 49.2 60.3 ENE | 68 2.2 7.1 0.0 13.0 0.00 - - - 0.00 46.0 81.4 8.8 7.2
5/1/26 - 1200 77.7 36 49.0 59.6 NE | 43 4.1 8.8 0.0 13.1 0.00 - - - 0.00 46.0 79.0 8.8 7.2
5/1/26 - 1100 74.7 42 49.8 59.4 NE | 38 2.5 6.2 0.0 13.1 0.00 - - - 0.00 46.0 77.1 6.2 7.2
5/1/26 - 1000 70.3 48 49.6 58.1 NNE | 24 1.2 3.8 0.0 13.2 0.00 - - - 0.00 46.0 73.1 3.8 7.2
5/1/26 - 0900 64.0 61 50.1 56.4 NE | 49 0.8 2.8 19.0 13.3 0.00 - - - 0.00 46.0 68.3 2.8 7.2
5/1/26 - 0800 55.0 82 49.5 52.7 E | 97 0.4 2.4 60.0 13.4 0.00 - - - 0.00 46.0 59.8 2.5 6.9
5/1/26 - 0700 47.1 97 46.3 47.2 SSW | 201 0.4 1.9 60.0 12.8 0.00 - - - 0.00 46.0 51.5 2.5 5.9
5/1/26 - 0600 47.0 96 46.0 47.0 SSW | 200 0.9 1.9 60.0 12.5 0.00 - - - 0.00 46.4 51.5 2.5 4.9
5/1/26 - 0500 47.9 95 46.6 47.8 SSW | 202 1.3 2.2 60.0 12.5 0.00 - - - 0.00 47.5 51.5 2.5 3.9
5/1/26 - 0400 48.6 94 47.1 48.4 SW | 218 1.2 2.2 60.0 12.5 0.00 - - - 0.00 47.8 51.5 2.5 2.9
5/1/26 - 0300 49.6 93 47.8 49.4 SW | 214 1.4 2.4 60.0 12.6 0.00 - - - 0.00 48.8 51.5 2.5 1.9
5/1/26 - 0200 50.7 92 48.6 50.4 SW | 216 1.5 2.5 52.0 12.6 0.00 - - - 0.00 49.9 51.5 2.5 0.9
5/1/26 - 0100 52.2 90 49.4 51.5 SW | 217 1.6 4.4 0.0 12.6 0.00 - - - 0.00 42.9 80.2 18.5 6.6
5/1/26 - 0000 54.2 86 50.0 52.7 SW | 221 1.6 3.7 0.0 12.6 0.00 - - - 0.00 42.9 80.2 18.5 6.6
4/30/26 - 2300 57.0 78 50.4 54.1 SSW | 201 2.0 5.0 0.0 12.6 0.00 - - - 0.00 42.9 80.2 18.5 6.6
4/30/26 - 2200 59.3 75 51.2 55.5 SW | 214 2.0 3.8 0.0 12.6 0.00 - - - 0.00 42.9 80.2 18.5 6.6
4/30/26 - 2100 66.3 56 50.2 57.2 S | 176 2.2 5.5 0.0 12.7 0.00 - - - 0.00 42.9 80.2 18.5 6.6
4/30/26 - 2000 72.2 43 48.7 58.1 SW | 222 5.0 13.9 0.0 12.8 0.00 - - - 0.00 42.9 80.2 18.5 6.6
4/30/26 - 1900 74.2 42 49.7 59.2 SW | 227 7.2 15.9 0.0 13.0 0.00 - - - 0.00 42.9 80.2 18.5 6.6
4/30/26 - 1800 75.4 44 52.1 60.8 SW | 231 8.2 18.5 0.0 13.1 0.00 - - - 0.00 42.9 80.2 18.5 6.6
4/30/26 - 1700 77.0 39 50.2 60.1 SW | 225 7.8 17.4 0.0 13.1 0.00 - - - 0.00 42.9 80.2 18.2 6.6
4/30/26 - 1600 77.6 38 49.7 60.0 SW | 224 7.5 17.9 0.0 13.1 0.00 - - - 0.00 42.9 80.2 18.2 6.6
4/30/26 - 1500 77.3 36 48.2 59.1 SW | 228 8.4 18.2 0.0 13.1 0.00 - - - 0.00 42.9 80.2 18.2 6.6
4/30/26 - 1400 78.4 35 48.1 59.4 WSW | 244 5.8 17.5 0.0 13.1 0.00 - - - 0.00 42.9 80.2 17.5 6.6
4/30/26 - 1300 78.2 31 45.0 57.8 ESE | 108 2.6 8.6 0.0 13.1 0.00 - - - 0.00 42.9 79.3 9.4 6.6
4/30/26 - 1200 76.8 33 45.8 57.8 E | 101 2.8 9.4 0.0 13.1 0.00 - - - 0.00 42.9 78.1 9.4 6.6
4/30/26 - 1100 73.9 39 47.5 57.9 ESE | 102 2.0 6.0 0.0 13.2 0.00 - - - 0.00 42.9 75.9 6.0 6.6
4/30/26 - 1000 69.2 45 47.1 56.4 ENE | 66 1.4 4.5 0.0 13.2 0.00 - - - 0.00 42.9 72.4 4.5 6.6
4/30/26 - 0900 63.1 57 47.4 54.6 ENE | 64 0.8 3.2 16.1 13.3 0.00 - - - 0.00 42.9 66.2 3.2 6.6
4/30/26 - 0800 52.9 80 46.8 50.2 S | 189 0.2 1.8 60.0 13.5 0.00 - - - 0.00 42.9 60.3 2.7 6.4
4/30/26 - 0700 43.8 97 42.8 43.7 SSW | 204 1.4 2.3 60.0 12.9 0.00 - - - 0.00 42.9 48.2 2.7 5.4
4/30/26 - 0600 43.6 96 42.5 43.4 SW | 216 1.3 2.4 60.0 12.5 0.00 - - - 0.00 42.9 48.2 2.7 4.4
4/30/26 - 0500 44.2 95 42.9 43.9 SSW | 201 1.3 2.7 60.0 12.5 0.00 - - - 0.00 43.6 48.2 2.7 3.4
4/30/26 - 0400 44.9 94 43.4 44.6 SSW | 211 1.1 2.0 60.0 12.5 0.00 - - - 0.00 44.3 48.2 2.5 2.4
4/30/26 - 0300 46.0 93 44.0 45.4 SSW | 205 1.3 2.5 60.0 12.6 0.00 - - - 0.00 45.3 48.2 2.5 1.4
4/30/26 - 0200 47.2 91 44.8 46.4 SW | 214 1.1 2.4 21.4 12.6 0.00 - - - 0.00 46.3 48.2 2.4 0.4
4/30/26 - 0100 48.5 89 45.4 47.5 SSW | 205 1.5 3.2 0.0 12.6 0.00 - - - 0.00 41.0 77.1 16.9 7.3
4/30/26 - 0000 50.6 84 46.0 48.7 SW | 217 1.5 3.6 0.0 12.6 0.00 - - - 0.00 41.0 77.1 16.9 7.3
4/29/26 - 2300 53.2 78 46.4 50.1 SSW | 206 1.7 4.8 0.0 12.6 0.00 - - - 0.00 41.0 77.1 16.9 7.3
4/29/26 - 2200 59.1 62 45.8 52.2 S | 180 1.7 6.6 0.0 12.7 0.00 - - - 0.00 41.0 77.1 16.9 7.3
4/29/26 - 2100 63.5 49 44.0 53.0 SSE | 159 2.3 6.5 0.0 12.7 0.00 - - - 0.00 41.0 77.1 16.9 7.3
4/29/26 - 2000 67.7 41 42.9 53.9 SSW | 208 3.1 16.9 0.0 12.8 0.00 - - - 0.00 41.0 77.1 16.9 7.3
4/29/26 - 1900 70.8 40 45.5 56.0 WSW | 246 5.2 13.2 0.0 13.0 0.00 - - - 0.00 41.0 77.1 16.0 7.3
4/29/26 - 1800 72.5 41 47.3 57.5 WSW | 241 5.8 14.5 0.0 13.1 0.00 - - - 0.00 41.0 77.1 16.0 7.3
4/29/26 - 1700 74.1 39 47.8 58.1 SW | 229 6.2 14.9 0.0 13.1 0.00 - - - 0.00 41.0 77.1 16.0 7.3
4/29/26 - 1600 75.7 35 46.4 57.8 SSW | 198 3.5 10.6 0.0 13.1 0.00 - - - 0.00 41.0 77.1 16.0 7.3
Max 81.7 97 56.0 62.7 - 8.4 20.6 60.0 13.5 0.12 0.33 0.33 0.33 0.33 55.2 82.5 20.6 9.8
Avg 58.9 72 48.4 53.2 - 2.7 7.9 12.9 12.9 0.00 0.12 0.23 0.31 - - - - -
Min 43.6 26 40.8 43.4 - 0.0 1.3 0.0 12.5 0.00 0.01 0.02 0.21 0.00 41.0 48.2 2.3 0.0
Total - - - - - - - - - 0.33 - - - - - - - -